sensor_id;sensor_type;location;lat;lon;timestamp;temperature;humidity
9810;DHT22;4944;52.514;13.192;2023-03-17T00:00:18;7.20;97.30
9810;DHT22;4944;52.514;13.192;2023-03-17T00:02:47;7.20;97.30
9810;DHT22;4944;52.514;13.192;2023-03-17T00:05:22;7.20;97.30
9810;DHT22;4944;52.514;13.192;2023-03-17T00:07:52;7.20;97.40
9810;DHT22;4944;52.514;13.192;2023-03-17T00:10:21;7.10;97.40
9810;DHT22;4944;52.514;13.192;2023-03-17T00:12:50;7.10;97.60
9810;DHT22;4944;52.514;13.192;2023-03-17T00:15:17;7.10;97.60
9810;DHT22;4944;52.514;13.192;2023-03-17T00:17:45;7.00;97.70
9810;DHT22;4944;52.514;13.192;2023-03-17T00:20:21;7.00;97.70
9810;DHT22;4944;52.514;13.192;2023-03-17T00:22:48;7.00;97.80
9810;DHT22;4944;52.514;13.192;2023-03-17T00:25:20;7.00;97.80
9810;DHT22;4944;52.514;13.192;2023-03-17T00:27:47;7.00;97.80
9810;DHT22;4944;52.514;13.192;2023-03-17T00:30:15;7.00;97.80
9810;DHT22;4944;52.514;13.192;2023-03-17T00:32:42;6.90;97.80
9810;DHT22;4944;52.514;13.192;2023-03-17T00:35:16;6.90;97.90
9810;DHT22;4944;52.514;13.192;2023-03-17T00:37:44;6.90;98.00
9810;DHT22;4944;52.514;13.192;2023-03-17T00:40:17;6.90;98.00
9810;DHT22;4944;52.514;13.192;2023-03-17T00:42:45;6.90;98.00
9810;DHT22;4944;52.514;13.192;2023-03-17T00:45:12;6.90;98.00
9810;DHT22;4944;52.514;13.192;2023-03-17T00:47:40;6.90;98.00
9810;DHT22;4944;52.514;13.192;2023-03-17T00:50:11;6.90;98.10
9810;DHT22;4944;52.514;13.192;2023-03-17T00:52:38;6.90;98.10
9810;DHT22;4944;52.514;13.192;2023-03-17T00:55:06;6.90;98.10
9810;DHT22;4944;52.514;13.192;2023-03-17T00:57:36;6.80;98.20
9810;DHT22;4944;52.514;13.192;2023-03-17T01:00:04;6.80;98.10
9810;DHT22;4944;52.514;13.192;2023-03-17T01:02:31;6.80;98.10
9810;DHT22;4944;52.514;13.192;2023-03-17T01:04:59;6.80;98.20
9810;DHT22;4944;52.514;13.192;2023-03-17T01:07:26;6.80;98.20
9810;DHT22;4944;52.514;13.192;2023-03-17T01:09:55;6.80;98.10
9810;DHT22;4944;52.514;13.192;2023-03-17T01:12:22;6.80;98.20
9810;DHT22;4944;52.514;13.192;2023-03-17T01:14:50;6.80;98.20
9810;DHT22;4944;52.514;13.192;2023-03-17T01:17:18;6.80;98.20
9810;DHT22;4944;52.514;13.192;2023-03-17T01:19:45;6.80;98.30
9810;DHT22;4944;52.514;13.192;2023-03-17T01:22:13;6.80;98.30
9810;DHT22;4944;52.514;13.192;2023-03-17T01:24:40;6.80;98.40
9810;DHT22;4944;52.514;13.192;2023-03-17T01:27:07;6.80;98.70
9810;DHT22;4944;52.514;13.192;2023-03-17T01:29:34;6.70;98.30
9810;DHT22;4944;52.514;13.192;2023-03-17T01:32:02;6.70;98.30
9810;DHT22;4944;52.514;13.192;2023-03-17T01:34:30;6.70;98.30
9810;DHT22;4944;52.514;13.192;2023-03-17T01:36:57;6.70;98.30
9810;DHT22;4944;52.514;13.192;2023-03-17T01:39:24;6.70;98.40
9810;DHT22;4944;52.514;13.192;2023-03-17T01:41:52;6.70;98.40
9810;DHT22;4944;52.514;13.192;2023-03-17T01:44:22;6.60;98.50
9810;DHT22;4944;52.514;13.192;2023-03-17T01:46:50;6.60;98.50
9810;DHT22;4944;52.514;13.192;2023-03-17T01:49:30;6.60;98.50
9810;DHT22;4944;52.514;13.192;2023-03-17T01:52:03;6.60;98.60
9810;DHT22;4944;52.514;13.192;2023-03-17T01:54:35;6.60;98.60
9810;DHT22;4944;52.514;13.192;2023-03-17T01:57:08;6.60;98.70
9810;DHT22;4944;52.514;13.192;2023-03-17T01:59:39;6.50;98.70
9810;DHT22;4944;52.514;13.192;2023-03-17T02:02:10;6.50;98.70
9810;DHT22;4944;52.514;13.192;2023-03-17T02:04:39;6.50;98.90
9810;DHT22;4944;52.514;13.192;2023-03-17T02:07:06;6.50;99.00
9810;DHT22;4944;52.514;13.192;2023-03-17T02:09:34;6.50;99.20
9810;DHT22;4944;52.514;13.192;2023-03-17T02:12:02;6.50;99.10
9810;DHT22;4944;52.514;13.192;2023-03-17T02:14:30;6.50;99.10
9810;DHT22;4944;52.514;13.192;2023-03-17T02:16:57;6.50;99.20
9810;DHT22;4944;52.514;13.192;2023-03-17T02:19:24;6.50;99.30
9810;DHT22;4944;52.514;13.192;2023-03-17T02:21:53;6.40;99.00
9810;DHT22;4944;52.514;13.192;2023-03-17T02:24:27;6.50;99.60
9810;DHT22;4944;52.514;13.192;2023-03-17T02:26:58;6.60;99.20
9810;DHT22;4944;52.514;13.192;2023-03-17T02:29:25;6.50;99.20
9810;DHT22;4944;52.514;13.192;2023-03-17T02:31:53;6.40;99.20
9810;DHT22;4944;52.514;13.192;2023-03-17T02:34:20;6.40;99.30
9810;DHT22;4944;52.514;13.192;2023-03-17T02:36:47;6.40;99.40
9810;DHT22;4944;52.514;13.192;2023-03-17T02:39:15;6.40;99.40
9810;DHT22;4944;52.514;13.192;2023-03-17T02:41:42;6.40;99.40
9810;DHT22;4944;52.514;13.192;2023-03-17T02:44:09;6.40;99.50
9810;DHT22;4944;52.514;13.192;2023-03-17T02:46:36;6.40;99.50
9810;DHT22;4944;52.514;13.192;2023-03-17T02:49:03;6.40;99.50
9810;DHT22;4944;52.514;13.192;2023-03-17T02:51:31;6.30;99.60
9810;DHT22;4944;52.514;13.192;2023-03-17T02:53:58;6.30;99.70
9810;DHT22;4944;52.514;13.192;2023-03-17T02:56:26;6.30;99.70
9810;DHT22;4944;52.514;13.192;2023-03-17T02:58:53;6.30;99.70
9810;DHT22;4944;52.514;13.192;2023-03-17T03:01:21;6.30;99.70
9810;DHT22;4944;52.514;13.192;2023-03-17T03:03:47;6.30;99.90
9810;DHT22;4944;52.514;13.192;2023-03-17T03:06:14;6.30;99.80
9810;DHT22;4944;52.514;13.192;2023-03-17T03:08:41;6.30;99.90
9810;DHT22;4944;52.514;13.192;2023-03-17T03:11:08;6.30;99.80
9810;DHT22;4944;52.514;13.192;2023-03-17T03:13:36;6.30;99.90
9810;DHT22;4944;52.514;13.192;2023-03-17T03:16:04;6.30;99.90
9810;DHT22;4944;52.514;13.192;2023-03-17T03:18:31;6.30;99.90
9810;DHT22;4944;52.514;13.192;2023-03-17T03:20:58;6.30;99.90
9810;DHT22;4944;52.514;13.192;2023-03-17T03:23:25;6.30;99.90
9810;DHT22;4944;52.514;13.192;2023-03-17T03:25:52;6.30;99.90
9810;DHT22;4944;52.514;13.192;2023-03-17T03:28:19;6.30;99.90
9810;DHT22;4944;52.514;13.192;2023-03-17T03:30:48;6.30;99.90
9810;DHT22;4944;52.514;13.192;2023-03-17T03:33:15;6.30;99.90
9810;DHT22;4944;52.514;13.192;2023-03-17T03:35:43;6.30;99.90
9810;DHT22;4944;52.514;13.192;2023-03-17T03:38:11;6.30;99.90
9810;DHT22;4944;52.514;13.192;2023-03-17T03:40:38;6.20;99.90
9810;DHT22;4944;52.514;13.192;2023-03-17T03:43:05;6.30;99.90
9810;DHT22;4944;52.514;13.192;2023-03-17T03:45:32;6.20;99.90
9810;DHT22;4944;52.514;13.192;2023-03-17T03:48:01;6.20;99.90
9810;DHT22;4944;52.514;13.192;2023-03-17T03:50:28;6.20;99.90
9810;DHT22;4944;52.514;13.192;2023-03-17T03:52:55;6.30;99.90
9810;DHT22;4944;52.514;13.192;2023-03-17T03:55:22;6.20;99.90
9810;DHT22;4944;52.514;13.192;2023-03-17T03:57:49;6.20;99.90
9810;DHT22;4944;52.514;13.192;2023-03-17T04:00:17;6.20;99.90
9810;DHT22;4944;52.514;13.192;2023-03-17T04:02:44;6.20;99.90
9810;DHT22;4944;52.514;13.192;2023-03-17T04:05:12;6.20;99.90
9810;DHT22;4944;52.514;13.192;2023-03-17T04:07:40;6.20;99.90
9810;DHT22;4944;52.514;13.192;2023-03-17T04:10:08;6.20;99.90
9810;DHT22;4944;52.514;13.192;2023-03-17T04:12:36;6.20;99.90
9810;DHT22;4944;52.514;13.192;2023-03-17T04:15:04;6.10;99.90
9810;DHT22;4944;52.514;13.192;2023-03-17T04:17:31;6.10;99.90
9810;DHT22;4944;52.514;13.192;2023-03-17T04:19:58;6.10;99.90
9810;DHT22;4944;52.514;13.192;2023-03-17T04:22:26;6.10;99.90
9810;DHT22;4944;52.514;13.192;2023-03-17T04:24:53;6.10;99.90
9810;DHT22;4944;52.514;13.192;2023-03-17T04:27:20;6.10;99.90
9810;DHT22;4944;52.514;13.192;2023-03-17T04:29:47;6.00;99.90
9810;DHT22;4944;52.514;13.192;2023-03-17T04:32:14;6.10;99.90
9810;DHT22;4944;52.514;13.192;2023-03-17T04:34:41;6.10;99.90
9810;DHT22;4944;52.514;13.192;2023-03-17T04:37:09;6.10;99.90
9810;DHT22;4944;52.514;13.192;2023-03-17T04:39:37;6.10;99.90
9810;DHT22;4944;52.514;13.192;2023-03-17T04:42:05;6.00;99.90
9810;DHT22;4944;52.514;13.192;2023-03-17T04:44:32;6.00;99.90
9810;DHT22;4944;52.514;13.192;2023-03-17T04:46:59;6.00;99.90
9810;DHT22;4944;52.514;13.192;2023-03-17T04:49:27;6.00;99.90
9810;DHT22;4944;52.514;13.192;2023-03-17T04:51:54;6.00;99.90
9810;DHT22;4944;52.514;13.192;2023-03-17T04:54:21;6.00;99.90
9810;DHT22;4944;52.514;13.192;2023-03-17T04:56:50;6.00;99.90
9810;DHT22;4944;52.514;13.192;2023-03-17T04:59:17;6.00;99.90
9810;DHT22;4944;52.514;13.192;2023-03-17T05:01:44;6.00;99.80
9810;DHT22;4944;52.514;13.192;2023-03-17T05:04:11;6.00;99.80
9810;DHT22;4944;52.514;13.192;2023-03-17T05:06:38;6.00;99.90
9810;DHT22;4944;52.514;13.192;2023-03-17T05:09:05;6.00;99.90
9810;DHT22;4944;52.514;13.192;2023-03-17T05:11:32;5.90;99.80
9810;DHT22;4944;52.514;13.192;2023-03-17T05:14:00;6.00;99.90
9810;DHT22;4944;52.514;13.192;2023-03-17T05:16:27;6.00;99.90
9810;DHT22;4944;52.514;13.192;2023-03-17T05:18:54;6.00;99.80
9810;DHT22;4944;52.514;13.192;2023-03-17T05:21:21;5.90;99.70
9810;DHT22;4944;52.514;13.192;2023-03-17T05:23:48;5.90;99.90
9810;DHT22;4944;52.514;13.192;2023-03-17T05:26:15;5.90;99.80
9810;DHT22;4944;52.514;13.192;2023-03-17T05:28:43;5.90;99.70
9810;DHT22;4944;52.514;13.192;2023-03-17T05:31:11;5.90;99.70
9810;DHT22;4944;52.514;13.192;2023-03-17T05:33:38;5.90;99.70
9810;DHT22;4944;52.514;13.192;2023-03-17T05:36:06;5.90;99.60
9810;DHT22;4944;52.514;13.192;2023-03-17T05:38:33;5.90;99.70
9810;DHT22;4944;52.514;13.192;2023-03-17T05:40:59;5.90;99.70
9810;DHT22;4944;52.514;13.192;2023-03-17T05:43:27;5.90;99.70
9810;DHT22;4944;52.514;13.192;2023-03-17T05:45:54;5.90;99.90
9810;DHT22;4944;52.514;13.192;2023-03-17T05:48:22;5.90;99.90
9810;DHT22;4944;52.514;13.192;2023-03-17T05:50:49;5.90;99.90
9810;DHT22;4944;52.514;13.192;2023-03-17T05:53:16;5.90;99.80
9810;DHT22;4944;52.514;13.192;2023-03-17T05:55:43;5.90;99.80
9810;DHT22;4944;52.514;13.192;2023-03-17T05:58:11;5.90;99.80
9810;DHT22;4944;52.514;13.192;2023-03-17T06:00:40;5.90;99.90
9810;DHT22;4944;52.514;13.192;2023-03-17T06:03:07;5.90;99.70
9810;DHT22;4944;52.514;13.192;2023-03-17T06:05:35;5.90;99.80
9810;DHT22;4944;52.514;13.192;2023-03-17T06:08:02;5.90;99.60
9810;DHT22;4944;52.514;13.192;2023-03-17T06:10:30;5.90;99.70
9810;DHT22;4944;52.514;13.192;2023-03-17T06:12:57;5.90;99.50
9810;DHT22;4944;52.514;13.192;2023-03-17T06:15:24;5.90;99.50
9810;DHT22;4944;52.514;13.192;2023-03-17T06:17:52;5.80;99.60
9810;DHT22;4944;52.514;13.192;2023-03-17T06:20:19;5.90;99.60
9810;DHT22;4944;52.514;13.192;2023-03-17T06:22:47;5.90;99.50
9810;DHT22;4944;52.514;13.192;2023-03-17T06:25:14;5.90;99.20
9810;DHT22;4944;52.514;13.192;2023-03-17T06:27:41;5.90;99.40
9810;DHT22;4944;52.514;13.192;2023-03-17T06:30:10;5.90;99.60
9810;DHT22;4944;52.514;13.192;2023-03-17T06:32:37;5.90;99.40
9810;DHT22;4944;52.514;13.192;2023-03-17T06:35:05;5.90;99.60
9810;DHT22;4944;52.514;13.192;2023-03-17T06:37:32;5.90;99.20
9810;DHT22;4944;52.514;13.192;2023-03-17T06:40:01;5.90;99.30
9810;DHT22;4944;52.514;13.192;2023-03-17T06:42:30;5.90;99.30
9810;DHT22;4944;52.514;13.192;2023-03-17T06:44:57;5.90;99.30
9810;DHT22;4944;52.514;13.192;2023-03-17T06:47:23;6.00;99.30
9810;DHT22;4944;52.514;13.192;2023-03-17T06:49:50;6.00;99.20
9810;DHT22;4944;52.514;13.192;2023-03-17T06:52:18;6.00;99.20
9810;DHT22;4944;52.514;13.192;2023-03-17T06:54:45;6.00;99.10
9810;DHT22;4944;52.514;13.192;2023-03-17T06:57:13;6.00;99.50
9810;DHT22;4944;52.514;13.192;2023-03-17T06:59:40;6.10;99.30
9810;DHT22;4944;52.514;13.192;2023-03-17T07:02:09;6.10;99.00
9810;DHT22;4944;52.514;13.192;2023-03-17T07:04:36;6.00;99.10
9810;DHT22;4944;52.514;13.192;2023-03-17T07:07:03;6.10;99.30
9810;DHT22;4944;52.514;13.192;2023-03-17T07:09:30;6.10;99.10
9810;DHT22;4944;52.514;13.192;2023-03-17T07:11:59;6.10;99.10
9810;DHT22;4944;52.514;13.192;2023-03-17T07:14:31;6.10;98.90
9810;DHT22;4944;52.514;13.192;2023-03-17T07:16:58;6.10;98.80
9810;DHT22;4944;52.514;13.192;2023-03-17T07:19:25;6.20;98.90
9810;DHT22;4944;52.514;13.192;2023-03-17T07:21:52;6.20;98.70
9810;DHT22;4944;52.514;13.192;2023-03-17T07:24:20;6.30;98.60
9810;DHT22;4944;52.514;13.192;2023-03-17T07:26:47;6.30;98.80
9810;DHT22;4944;52.514;13.192;2023-03-17T07:29:14;6.40;98.90
9810;DHT22;4944;52.514;13.192;2023-03-17T07:31:43;6.50;98.60
9810;DHT22;4944;52.514;13.192;2023-03-17T07:34:10;6.50;98.50
9810;DHT22;4944;52.514;13.192;2023-03-17T07:36:38;6.50;98.50
9810;DHT22;4944;52.514;13.192;2023-03-17T07:39:06;6.50;98.50
9810;DHT22;4944;52.514;13.192;2023-03-17T07:41:33;6.50;98.30
9810;DHT22;4944;52.514;13.192;2023-03-17T07:44:01;6.50;98.30
9810;DHT22;4944;52.514;13.192;2023-03-17T07:46:29;6.50;98.50
9810;DHT22;4944;52.514;13.192;2023-03-17T07:48:57;6.60;98.40
9810;DHT22;4944;52.514;13.192;2023-03-17T07:51:25;6.60;98.80
9810;DHT22;4944;52.514;13.192;2023-03-17T07:53:52;6.60;98.40
9810;DHT22;4944;52.514;13.192;2023-03-17T07:56:27;6.60;98.70
9810;DHT22;4944;52.514;13.192;2023-03-17T07:58:58;6.70;98.60
9810;DHT22;4944;52.514;13.192;2023-03-17T08:01:25;6.80;98.50
9810;DHT22;4944;52.514;13.192;2023-03-17T08:03:53;6.90;98.20
9810;DHT22;4944;52.514;13.192;2023-03-17T08:06:22;6.90;98.30
9810;DHT22;4944;52.514;13.192;2023-03-17T08:08:51;7.00;98.50
9810;DHT22;4944;52.514;13.192;2023-03-17T08:11:18;7.00;98.10
9810;DHT22;4944;52.514;13.192;2023-03-17T08:13:54;7.00;98.30
9810;DHT22;4944;52.514;13.192;2023-03-17T08:16:21;7.10;97.80
9810;DHT22;4944;52.514;13.192;2023-03-17T08:18:48;7.10;98.00
9810;DHT22;4944;52.514;13.192;2023-03-17T08:21:15;7.10;97.80
9810;DHT22;4944;52.514;13.192;2023-03-17T08:23:43;7.20;97.90
9810;DHT22;4944;52.514;13.192;2023-03-17T08:26:11;7.20;97.80
9810;DHT22;4944;52.514;13.192;2023-03-17T08:28:40;7.30;98.00
9810;DHT22;4944;52.514;13.192;2023-03-17T08:31:09;7.40;97.70
9810;DHT22;4944;52.514;13.192;2023-03-17T08:33:37;7.50;97.30
9810;DHT22;4944;52.514;13.192;2023-03-17T08:36:05;7.50;97.70
9810;DHT22;4944;52.514;13.192;2023-03-17T08:38:34;7.60;97.60
9810;DHT22;4944;52.514;13.192;2023-03-17T08:41:04;7.60;97.00
9810;DHT22;4944;52.514;13.192;2023-03-17T08:43:32;7.60;97.00
9810;DHT22;4944;52.514;13.192;2023-03-17T08:46:03;7.60;97.00
9810;DHT22;4944;52.514;13.192;2023-03-17T08:48:32;7.70;97.10
9810;DHT22;4944;52.514;13.192;2023-03-17T08:50:59;7.70;96.50
9810;DHT22;4944;52.514;13.192;2023-03-17T08:53:26;7.80;96.70
9810;DHT22;4944;52.514;13.192;2023-03-17T08:55:54;7.80;96.80
9810;DHT22;4944;52.514;13.192;2023-03-17T08:58:24;7.90;96.60
9810;DHT22;4944;52.514;13.192;2023-03-17T09:00:52;7.90;96.40
9810;DHT22;4944;52.514;13.192;2023-03-17T09:03:19;7.90;96.70
9810;DHT22;4944;52.514;13.192;2023-03-17T09:05:47;7.90;96.70
9810;DHT22;4944;52.514;13.192;2023-03-17T09:08:14;7.90;96.50
9810;DHT22;4944;52.514;13.192;2023-03-17T09:10:42;8.00;96.30
9810;DHT22;4944;52.514;13.192;2023-03-17T09:13:09;8.00;96.50
9810;DHT22;4944;52.514;13.192;2023-03-17T09:15:38;8.10;96.50
9810;DHT22;4944;52.514;13.192;2023-03-17T09:18:06;8.20;96.20
9810;DHT22;4944;52.514;13.192;2023-03-17T09:20:35;8.20;96.30
9810;DHT22;4944;52.514;13.192;2023-03-17T09:23:04;8.30;96.70
9810;DHT22;4944;52.514;13.192;2023-03-17T09:25:33;8.40;96.60
9810;DHT22;4944;52.514;13.192;2023-03-17T09:28:00;8.50;96.40
9810;DHT22;4944;52.514;13.192;2023-03-17T09:30:28;8.50;96.70
9810;DHT22;4944;52.514;13.192;2023-03-17T09:32:58;8.60;95.90
9810;DHT22;4944;52.514;13.192;2023-03-17T09:35:25;8.70;95.90
9810;DHT22;4944;52.514;13.192;2023-03-17T09:37:52;8.80;95.90
9810;DHT22;4944;52.514;13.192;2023-03-17T09:40:21;8.90;95.50
9810;DHT22;4944;52.514;13.192;2023-03-17T09:42:59;9.00;96.00
9810;DHT22;4944;52.514;13.192;2023-03-17T09:45:31;9.00;95.90
9810;DHT22;4944;52.514;13.192;2023-03-17T09:48:15;9.20;95.80
9810;DHT22;4944;52.514;13.192;2023-03-17T09:50:48;9.30;95.90
9810;DHT22;4944;52.514;13.192;2023-03-17T09:53:22;9.30;95.40
9810;DHT22;4944;52.514;13.192;2023-03-17T09:55:54;9.40;95.20
9810;DHT22;4944;52.514;13.192;2023-03-17T09:58:27;9.50;95.10
9810;DHT22;4944;52.514;13.192;2023-03-17T10:00:55;9.50;95.10
9810;DHT22;4944;52.514;13.192;2023-03-17T10:03:23;9.60;95.40
9810;DHT22;4944;52.514;13.192;2023-03-17T10:05:52;9.70;95.00
9810;DHT22;4944;52.514;13.192;2023-03-17T10:08:21;9.70;95.30
9810;DHT22;4944;52.514;13.192;2023-03-17T10:10:53;9.80;95.50
9810;DHT22;4944;52.514;13.192;2023-03-17T10:13:41;9.90;95.20
9810;DHT22;4944;52.514;13.192;2023-03-17T10:16:12;9.90;95.00
9810;DHT22;4944;52.514;13.192;2023-03-17T10:18:45;10.00;94.60
9810;DHT22;4944;52.514;13.192;2023-03-17T10:21:19;10.00;94.30
9810;DHT22;4944;52.514;13.192;2023-03-17T10:23:49;10.10;94.30
9810;DHT22;4944;52.514;13.192;2023-03-17T10:26:25;10.10;94.70
9810;DHT22;4944;52.514;13.192;2023-03-17T10:28:54;10.10;94.70
9810;DHT22;4944;52.514;13.192;2023-03-17T10:31:27;10.20;94.40
9810;DHT22;4944;52.514;13.192;2023-03-17T10:34:10;10.20;94.70
9810;DHT22;4944;52.514;13.192;2023-03-17T10:36:40;10.30;94.80
9810;DHT22;4944;52.514;13.192;2023-03-17T10:39:11;10.30;94.90
9810;DHT22;4944;52.514;13.192;2023-03-17T10:41:42;10.30;94.60
9810;DHT22;4944;52.514;13.192;2023-03-17T10:44:21;10.40;94.50
9810;DHT22;4944;52.514;13.192;2023-03-17T10:46:53;10.50;94.80
9810;DHT22;4944;52.514;13.192;2023-03-17T10:49:22;10.50;94.80
9810;DHT22;4944;52.514;13.192;2023-03-17T10:51:52;10.60;94.80
9810;DHT22;4944;52.514;13.192;2023-03-17T10:54:22;10.70;94.50
9810;DHT22;4944;52.514;13.192;2023-03-17T10:56:58;10.70;94.80
9810;DHT22;4944;52.514;13.192;2023-03-17T10:59:29;10.80;94.50
9810;DHT22;4944;52.514;13.192;2023-03-17T11:01:58;10.80;94.60
9810;DHT22;4944;52.514;13.192;2023-03-17T11:04:29;10.90;94.60
9810;DHT22;4944;52.514;13.192;2023-03-17T11:06:59;10.90;95.10
9810;DHT22;4944;52.514;13.192;2023-03-17T11:09:28;11.00;95.00
9810;DHT22;4944;52.514;13.192;2023-03-17T11:12:02;11.10;94.10
9810;DHT22;4944;52.514;13.192;2023-03-17T11:14:29;11.20;94.00
9810;DHT22;4944;52.514;13.192;2023-03-17T11:16:58;11.30;94.10
9810;DHT22;4944;52.514;13.192;2023-03-17T11:19:34;11.30;94.10
9810;DHT22;4944;52.514;13.192;2023-03-17T11:22:09;11.40;93.90
9810;DHT22;4944;52.514;13.192;2023-03-17T11:24:41;11.50;94.40
9810;DHT22;4944;52.514;13.192;2023-03-17T11:27:14;11.50;94.10
9810;DHT22;4944;52.514;13.192;2023-03-17T11:30:00;11.60;94.10
9810;DHT22;4944;52.514;13.192;2023-03-17T11:32:34;11.70;94.30
9810;DHT22;4944;52.514;13.192;2023-03-17T11:35:23;11.70;94.30
9810;DHT22;4944;52.514;13.192;2023-03-17T11:38:03;11.80;93.70
9810;DHT22;4944;52.514;13.192;2023-03-17T11:40:41;11.90;93.80
9810;DHT22;4944;52.514;13.192;2023-03-17T11:43:23;12.00;93.70
9810;DHT22;4944;52.514;13.192;2023-03-17T11:45:58;12.00;93.60
9810;DHT22;4944;52.514;13.192;2023-03-17T11:48:35;12.00;93.20
9810;DHT22;4944;52.514;13.192;2023-03-17T11:51:15;12.10;93.50
9810;DHT22;4944;52.514;13.192;2023-03-17T11:53:58;12.10;93.20
9810;DHT22;4944;52.514;13.192;2023-03-17T11:56:35;12.20;93.20
9810;DHT22;4944;52.514;13.192;2023-03-17T11:59:05;12.30;93.70
9810;DHT22;4944;52.514;13.192;2023-03-17T12:01:45;12.30;93.50
9810;DHT22;4944;52.514;13.192;2023-03-17T12:04:19;12.30;93.40
9810;DHT22;4944;52.514;13.192;2023-03-17T12:06:53;12.30;93.00
9810;DHT22;4944;52.514;13.192;2023-03-17T12:09:27;12.30;93.10
9810;DHT22;4944;52.514;13.192;2023-03-17T12:11:56;12.40;93.30
9810;DHT22;4944;52.514;13.192;2023-03-17T12:14:27;12.50;93.50
9810;DHT22;4944;52.514;13.192;2023-03-17T12:17:00;12.50;93.60
9810;DHT22;4944;52.514;13.192;2023-03-17T12:19:35;12.50;92.90
9810;DHT22;4944;52.514;13.192;2023-03-17T12:22:07;12.50;93.20
9810;DHT22;4944;52.514;13.192;2023-03-17T12:24:39;12.60;92.90
9810;DHT22;4944;52.514;13.192;2023-03-17T12:27:12;12.60;92.30
9810;DHT22;4944;52.514;13.192;2023-03-17T12:29:42;12.60;92.70
9810;DHT22;4944;52.514;13.192;2023-03-17T12:32:17;12.60;92.80
9810;DHT22;4944;52.514;13.192;2023-03-17T12:34:49;12.60;92.70
9810;DHT22;4944;52.514;13.192;2023-03-17T12:37:19;12.70;92.60
9810;DHT22;4944;52.514;13.192;2023-03-17T12:39:51;12.70;92.40
9810;DHT22;4944;52.514;13.192;2023-03-17T12:42:49;12.70;92.30
9810;DHT22;4944;52.514;13.192;2023-03-17T12:45:32;12.80;92.20
9810;DHT22;4944;52.514;13.192;2023-03-17T12:48:15;12.80;92.30
9810;DHT22;4944;52.514;13.192;2023-03-17T12:53:50;12.80;92.60
9810;DHT22;4944;52.514;13.192;2023-03-17T12:56:19;12.80;93.00
9810;DHT22;4944;52.514;13.192;2023-03-17T12:58:48;12.80;93.10
9810;DHT22;4944;52.514;13.192;2023-03-17T13:01:24;12.80;93.60
9810;DHT22;4944;52.514;13.192;2023-03-17T13:04:00;12.80;93.40
9810;DHT22;4944;52.514;13.192;2023-03-17T13:06:32;12.80;93.10
9810;DHT22;4944;52.514;13.192;2023-03-17T13:09:41;12.80;92.80
9810;DHT22;4944;52.514;13.192;2023-03-17T13:15:24;12.90;93.30
9810;DHT22;4944;52.514;13.192;2023-03-17T13:18:43;12.90;93.50
9810;DHT22;4944;52.514;13.192;2023-03-17T13:21:13;13.00;93.10
9810;DHT22;4944;52.514;13.192;2023-03-17T13:23:43;13.10;92.80
9810;DHT22;4944;52.514;13.192;2023-03-17T13:26:13;13.10;92.60
9810;DHT22;4944;52.514;13.192;2023-03-17T13:28:43;13.10;92.70
9810;DHT22;4944;52.514;13.192;2023-03-17T13:31:32;13.20;93.20
9810;DHT22;4944;52.514;13.192;2023-03-17T13:34:10;13.10;93.10
9810;DHT22;4944;52.514;13.192;2023-03-17T13:36:50;13.10;93.50
9810;DHT22;4944;52.514;13.192;2023-03-17T13:42:29;13.20;93.60
9810;DHT22;4944;52.514;13.192;2023-03-17T13:47:50;13.20;93.50
9810;DHT22;4944;52.514;13.192;2023-03-17T13:50:21;13.20;94.20
9810;DHT22;4944;52.514;13.192;2023-03-17T13:52:53;13.20;93.00
9810;DHT22;4944;52.514;13.192;2023-03-17T13:55:38;13.20;93.20
9810;DHT22;4944;52.514;13.192;2023-03-17T13:58:30;13.30;93.10
9810;DHT22;4944;52.514;13.192;2023-03-17T14:01:02;13.40;93.20
9810;DHT22;4944;52.514;13.192;2023-03-17T14:03:38;13.40;93.40
9810;DHT22;4944;52.514;13.192;2023-03-17T14:06:07;13.40;93.20
9810;DHT22;4944;52.514;13.192;2023-03-17T14:08:38;13.50;93.40
9810;DHT22;4944;52.514;13.192;2023-03-17T14:11:16;13.50;93.40
9810;DHT22;4944;52.514;13.192;2023-03-17T14:13:54;13.50;93.30
9810;DHT22;4944;52.514;13.192;2023-03-17T14:16:28;13.50;93.30
9810;DHT22;4944;52.514;13.192;2023-03-17T14:18:58;13.50;93.60
9810;DHT22;4944;52.514;13.192;2023-03-17T14:21:29;13.40;93.40
9810;DHT22;4944;52.514;13.192;2023-03-17T14:23:58;13.40;93.30
9810;DHT22;4944;52.514;13.192;2023-03-17T14:26:27;13.40;93.40
9810;DHT22;4944;52.514;13.192;2023-03-17T14:28:58;13.40;93.30
9810;DHT22;4944;52.514;13.192;2023-03-17T14:31:27;13.40;93.40
9810;DHT22;4944;52.514;13.192;2023-03-17T14:33:56;13.40;93.30
9810;DHT22;4944;52.514;13.192;2023-03-17T14:36:25;13.40;93.10
9810;DHT22;4944;52.514;13.192;2023-03-17T14:38:53;13.30;93.50
9810;DHT22;4944;52.514;13.192;2023-03-17T14:41:22;13.30;93.60
9810;DHT22;4944;52.514;13.192;2023-03-17T14:43:51;13.30;93.60
9810;DHT22;4944;52.514;13.192;2023-03-17T14:46:23;13.30;93.20
9810;DHT22;4944;52.514;13.192;2023-03-17T14:48:55;13.30;93.20
9810;DHT22;4944;52.514;13.192;2023-03-17T14:51:26;13.30;93.10
9810;DHT22;4944;52.514;13.192;2023-03-17T14:53:58;13.30;93.40
9810;DHT22;4944;52.514;13.192;2023-03-17T14:56:30;13.20;93.20
9810;DHT22;4944;52.514;13.192;2023-03-17T14:59:04;13.20;93.10
9810;DHT22;4944;52.514;13.192;2023-03-17T15:01:35;13.20;93.00
9810;DHT22;4944;52.514;13.192;2023-03-17T15:04:09;13.10;93.20
9810;DHT22;4944;52.514;13.192;2023-03-17T15:06:46;13.10;93.10
9810;DHT22;4944;52.514;13.192;2023-03-17T15:09:18;13.00;93.10
9810;DHT22;4944;52.514;13.192;2023-03-17T15:11:46;13.00;93.50
9810;DHT22;4944;52.514;13.192;2023-03-17T15:14:17;13.00;93.30
9810;DHT22;4944;52.514;13.192;2023-03-17T15:16:47;12.90;93.30
9810;DHT22;4944;52.514;13.192;2023-03-17T15:19:20;12.90;93.50
9810;DHT22;4944;52.514;13.192;2023-03-17T15:21:49;12.90;93.40
9810;DHT22;4944;52.514;13.192;2023-03-17T15:24:29;12.90;93.40
9810;DHT22;4944;52.514;13.192;2023-03-17T15:26:59;12.90;93.70
9810;DHT22;4944;52.514;13.192;2023-03-17T15:29:27;12.80;93.80
9810;DHT22;4944;52.514;13.192;2023-03-17T15:32:00;12.80;94.10
9810;DHT22;4944;52.514;13.192;2023-03-17T15:34:28;12.80;94.10
9810;DHT22;4944;52.514;13.192;2023-03-17T15:36:55;12.80;94.00
9810;DHT22;4944;52.514;13.192;2023-03-17T15:39:22;12.70;93.90
9810;DHT22;4944;52.514;13.192;2023-03-17T15:41:49;12.70;93.90
9810;DHT22;4944;52.514;13.192;2023-03-17T15:44:15;12.70;94.10
9810;DHT22;4944;52.514;13.192;2023-03-17T15:46:42;12.70;94.00
9810;DHT22;4944;52.514;13.192;2023-03-17T15:49:11;12.70;94.10
9810;DHT22;4944;52.514;13.192;2023-03-17T15:51:38;12.70;94.10
9810;DHT22;4944;52.514;13.192;2023-03-17T15:54:05;12.60;94.30
9810;DHT22;4944;52.514;13.192;2023-03-17T15:56:32;12.60;94.10
9810;DHT22;4944;52.514;13.192;2023-03-17T15:59:00;12.60;94.00
9810;DHT22;4944;52.514;13.192;2023-03-17T16:01:27;12.50;94.00
9810;DHT22;4944;52.514;13.192;2023-03-17T16:03:54;12.50;94.90
9810;DHT22;4944;52.514;13.192;2023-03-17T16:06:23;12.50;95.10
9810;DHT22;4944;52.514;13.192;2023-03-17T16:08:50;12.50;95.40
9810;DHT22;4944;52.514;13.192;2023-03-17T16:11:18;12.50;95.00
9810;DHT22;4944;52.514;13.192;2023-03-17T16:13:47;12.50;94.70
9810;DHT22;4944;52.514;13.192;2023-03-17T16:16:20;12.40;94.50
9810;DHT22;4944;52.514;13.192;2023-03-17T16:18:52;12.40;94.40
9810;DHT22;4944;52.514;13.192;2023-03-17T16:21:19;12.40;94.50
9810;DHT22;4944;52.514;13.192;2023-03-17T16:23:48;12.40;94.50
9810;DHT22;4944;52.514;13.192;2023-03-17T16:26:15;12.30;94.50